KVCT/VCT METAR and TAF weather

Enter ICAO airport designator
Station Type Date Time Source
KVCT METAR 2022/11/27 07:51 UTC NOAA

KVCT 270751Z AUTO 21008KT 10SM CLR 11/07 A2990 RMK AO2 SLP123 T01060072


Station Type Date Time Source
KVCT Decoded METAR 2022/11/27 07:51 UTC NOAA

VICTORIA REGIONAL AIRPORT, TX, United States (KVCT) 28-52N 96-56W 31M
Nov 27, 2022 - 02:51 AM EST / 2022.11.27 0751 UTC
Wind: from the SSW (210 degrees) at 9 MPH (8 KT):0
Visibility: 10 mile(s):0
Sky conditions: clear
Temperature: 51.1 F (10.6 C)
Dew Point: 45.0 F (7.2 C)
Relative Humidity: 79%
Pressure (altimeter): 29.9 in. Hg (1012 hPa)
ob: KVCT 270751Z AUTO 21008KT 10SM CLR 11/07 A2990 RMK AO2 SLP123 T01060072
cycle: 8

Station Type Date Time Source
KVCT TAF 2022/11/27 06:33 UTC NOAA

TAF KVCT 270530Z 2706/2806 21007KT P6SM SKC
FM270800 22005KT P6SM SKC WS020/22040KT
FM271500 23010KT P6SM SKC
FM280000 VRB04KT P6SM SKC

Example: see airport list